Terminal Aerodrome Forecast
Issued by NWS

Home | Current Version | Previous Version | Text Only | Print | Product List | Glossary On
Versions: 1 2 3 4 5 6 7 8 9 10 11 12 13 14 15 16 17 18 19 20 21 22 23 24 25 26 27 28 29 30 31 32 33 34 35 36
000
FTUS45 KGJT 292340
TAFEGE
TAF
KEGE 292340Z 3000/3024 28005KT P6SM VCSH FEW090 SCT110
     FM300200 08005KT P6SM FEW100
     FM300600 12004KT P6SM FEW100 SCT250
     FM301000 VRB03KT P6SM SCT250
     FM302000 23012G20KT P6SM SCT110 BKN200
      AMD LTD TO CLD VIS AND WIND 3001/3013=

USA.gov is the U.S. government's official web portal to all federal, state and local government web resources and services.